Time;durP1;ratioP1;P1;durP2;ratioP2;P2;SDS_P1;SDS_P2;PMS_P1;PMS_P2;Temp;Humidity;BMP_temperature;BMP_pressure;BME280_temperature;BME280_humidity;BME280_pressure;Samples;Min_cycle;Max_cycle;Signal;HPM_P1;HPM_P2
2023/08/26 00:01:50;;;;;;;;;;;21.80;76.50;;;21.14;64.58;99012.94;10369799;28;1906;-71
2023/08/26 00:06:46;;;;;;;;;;;21.80;76.50;;;21.14;64.41;99014.72;10369620;28;831;-71
2023/08/26 00:11:41;;;;;;;;;;;21.80;76.50;;;21.14;64.57;99017.34;10369735;28;818;-71
2023/08/26 00:16:36;;;;;;;;;;;21.80;76.50;;;21.13;64.61;99016.50;10369820;28;846;-71
2023/08/26 00:21:32;;;;;;;;;;;21.80;76.50;;;21.13;64.52;99018.31;10369281;28;1981;-71
2023/08/26 00:26:27;;;;;;;;;;;21.80;76.40;;;21.13;64.53;99011.22;10368160;28;905;-71
2023/08/26 00:31:23;;;;;;;;;;;21.80;76.40;;;21.13;64.40;99010.38;10367908;28;1297;-71
2023/08/26 00:36:18;;;;;;;;;;;21.80;77.20;;;21.12;64.32;98996.28;10367669;28;1042;-71
2023/08/26 00:41:14;;;;;;;;;;;21.80;76.40;;;21.13;64.43;99008.56;10368751;28;1963;-71
2023/08/26 00:46:09;;;;;;;;;;;21.80;76.40;;;21.12;64.32;99012.19;10368094;28;957;-71
2023/08/26 00:51:04;;;;;;;;;;;21.80;76.40;;;21.12;64.57;99020.13;10367283;28;843;-71
2023/08/26 00:56:00;;;;;;;;;;;21.80;76.40;;;21.11;64.42;99029.00;10368705;28;987;-71
2023/08/26 01:00:55;;;;;;;;;;;21.80;76.40;;;21.11;64.34;99029.00;10368245;28;1910;-71
2023/08/26 01:05:51;;;;;;;;;;;21.80;76.40;;;21.11;64.56;99028.16;10366790;28;898;-71
2023/08/26 01:10:46;;;;;;;;;;;21.80;76.40;;;21.11;64.46;99029.00;10367227;28;853;-71
2023/08/26 01:15:42;;;;;;;;;;;21.80;76.20;;;21.11;64.49;99034.31;10367033;28;881;-71
2023/08/26 01:20:37;;;;;;;;;;;21.80;76.20;;;21.10;64.51;99034.44;10367354;28;1963;-71
2023/08/26 01:25:32;;;;;;;;;;;21.80;76.30;;;21.10;64.35;99037.09;10367352;28;859;-71
2023/08/26 01:30:28;;;;;;;;;;;21.80;76.20;;;21.09;64.29;99049.50;10366867;28;1360;-71
2023/08/26 01:35:23;;;;;;;;;;;21.80;76.40;;;21.10;64.33;99053.84;10366495;28;788;-71
2023/08/26 01:40:19;;;;;;;;;;;21.80;76.30;;;21.10;64.29;99061.78;10366718;28;1984;-71
2023/08/26 01:45:14;;;;;;;;;;;21.70;76.10;;;21.10;64.45;99047.69;10366873;28;959;-71
2023/08/26 01:50:10;;;;;;;;;;;21.80;76.30;;;21.10;64.27;99053.84;10372245;28;853;-71
2023/08/26 01:55:05;;;;;;;;;;;21.70;76.10;;;21.09;64.44;99052.16;10379992;28;934;-71
2023/08/26 02:00:00;;;;;;;;;;;21.70;76.10;;;21.08;64.29;99060.19;10379129;28;1910;-71
2023/08/26 02:04:56;;;;;;;;;;;21.80;76.20;;;21.08;64.33;99061.03;10380491;28;870;-71
2023/08/26 02:09:51;;;;;;;;;;;21.70;76.10;;;21.08;64.42;99054.88;10379051;28;843;-71
2023/08/26 02:14:46;;;;;;;;;;;21.70;76.10;;;21.07;64.43;99056.69;10380699;28;897;-71
2023/08/26 02:19:42;;;;;;;;;;;21.70;76.20;;;21.07;64.25;99048.75;10379807;28;1917;-71
2023/08/26 02:24:37;;;;;;;;;;;21.70;76.10;;;21.07;64.30;99053.19;10379485;28;1079;-71
2023/08/26 02:29:33;;;;;;;;;;;21.70;76.10;;;21.06;64.17;99052.31;10379675;28;1307;-71
2023/08/26 02:34:28;;;;;;;;;;;21.70;76.10;;;21.06;64.42;99051.47;10379673;28;850;-71
2023/08/26 02:39:23;;;;;;;;;;;21.70;76.10;;;21.06;64.21;99054.97;10378849;28;1914;-71
2023/08/26 02:44:19;;;;;;;;;;;21.70;76.00;;;21.06;64.27;99059.44;10378954;28;768;-71
2023/08/26 02:49:14;;;;;;;;;;;21.70;76.00;;;21.05;64.36;99065.69;10378852;28;918;-71
2023/08/26 02:54:10;;;;;;;;;;;21.70;76.00;;;21.05;64.22;99071.84;10379393;28;799;-71
2023/08/26 02:59:05;;;;;;;;;;;21.70;76.00;;;21.05;64.20;99060.41;10378611;28;1905;-71
2023/08/26 03:04:00;;;;;;;;;;;21.70;76.00;;;21.04;64.19;99075.47;10373045;28;799;-71
2023/08/26 03:08:56;;;;;;;;;;;21.70;76.00;;;21.05;64.36;99078.94;10371849;28;961;-71
2023/08/26 03:13:51;;;;;;;;;;;21.70;76.00;;;21.04;64.28;99087.81;10371753;28;875;-71
2023/08/26 03:18:47;;;;;;;;;;;21.70;76.00;;;21.02;64.17;99099.38;10371488;28;943;-71
2023/08/26 03:23:42;;;;;;;;;;;21.70;75.90;;;21.02;64.29;99111.78;10371218;28;1906;-71
2023/08/26 03:28:37;;;;;;;;;;;21.70;75.90;;;21.01;64.22;99124.19;10371289;28;1118;-71
2023/08/26 03:33:33;;;;;;;;;;;21.70;75.90;;;21.01;64.03;99134.81;10371173;28;787;-71
2023/08/26 03:38:28;;;;;;;;;;;21.70;75.90;;;21.00;64.25;99133.09;10370925;28;996;-71
2023/08/26 03:43:23;;;;;;;;;;;21.70;75.80;;;21.00;64.21;99140.19;10369950;28;1910;-71
2023/08/26 03:48:19;;;;;;;;;;;21.70;75.70;;;21.00;64.13;99142.84;10370363;28;956;-71
2023/08/26 03:53:14;;;;;;;;;;;21.70;75.60;;;20.97;64.04;99135.94;10370251;28;839;-71
2023/08/26 03:58:10;;;;;;;;;;;21.70;75.60;;;20.96;63.99;99139.56;10370574;28;1040;-71
2023/08/26 04:03:05;;;;;;;;;;;21.60;75.50;;;20.97;63.87;99145.69;10369712;28;1965;-71
2023/08/26 04:08:00;;;;;;;;;;;21.60;75.40;;;20.96;63.87;99149.31;10369072;28;876;-71
2023/08/26 04:12:56;;;;;;;;;;;21.60;75.30;;;20.95;63.99;99164.31;10369575;28;811;-71
2023/08/26 04:17:51;;;;;;;;;;;21.60;75.10;;;20.95;63.74;99166.13;10369887;28;837;-71
2023/08/26 04:22:46;;;;;;;;;;;21.60;75.10;;;20.94;63.81;99177.69;10369588;28;1959;-71
2023/08/26 04:27:42;;;;;;;;;;;21.60;75.10;;;20.94;63.97;99186.47;10368221;28;1060;-71
2023/08/26 04:32:37;;;;;;;;;;;21.60;75.00;;;20.93;63.88;99183.94;10368767;28;982;-71
2023/08/26 04:37:33;;;;;;;;;;;21.60;75.00;;;20.92;63.82;99184.88;10368484;28;993;-71
2023/08/26 04:42:28;;;;;;;;;;;21.60;75.00;;;20.92;63.64;99185.72;10368264;28;1913;-71
2023/08/26 04:47:25;;;;;;;;;;;21.60;74.90;;;20.91;63.58;99196.44;10367548;28;906;-71
2023/08/26 04:52:21;;;;;;;;;;;21.60;75.00;;;20.89;63.47;99204.47;10368152;28;807;-71
2023/08/26 04:57:17;;;;;;;;;;;21.60;75.20;;;20.90;63.45;99207.97;10367669;28;917;-71
2023/08/26 05:02:12;;;;;;;;;;;21.60;75.10;;;20.89;63.57;99224.84;10368127;28;1910;-71
2023/08/26 05:07:07;;;;;;;;;;;21.60;75.00;;;20.87;63.27;99219.63;10367557;28;856;-71
2023/08/26 05:12:03;;;;;;;;;;;21.60;75.00;;;20.87;63.25;99226.72;10366978;28;839;-71
2023/08/26 05:16:58;;;;;;;;;;;21.60;75.00;;;20.86;63.20;99222.38;10367668;28;851;-70
2023/08/26 05:21:54;;;;;;;;;;;21.50;75.20;;;20.86;63.54;99219.72;10366820;28;1910;-71
2023/08/26 05:26:49;;;;;;;;;;;21.50;75.00;;;20.86;63.25;99225.03;10366897;28;800;-70
2023/08/26 05:31:45;;;;;;;;;;;21.50;74.90;;;20.85;63.33;99218.00;10366333;28;1222;-70
2023/08/26 05:36:40;;;;;;;;;;;21.50;74.90;;;20.85;63.44;99223.31;10367242;28;799;-70
2023/08/26 05:41:36;;;;;;;;;;;21.50;74.80;;;20.84;63.34;99224.28;10366322;28;1910;-71
2023/08/26 05:46:31;;;;;;;;;;;21.50;74.80;;;20.85;63.48;99228.59;10366362;28;762;-70
2023/08/26 05:51:27;;;;;;;;;;;21.50;74.60;;;20.85;63.44;99233.91;10366867;28;818;-71
2023/08/26 05:56:22;;;;;;;;;;;21.50;74.70;;;20.84;63.43;99233.06;10366653;28;854;-71
2023/08/26 06:01:18;;;;;;;;;;;21.50;75.50;;;20.83;63.23;99238.44;10365892;28;1963;-71
2023/08/26 06:06:13;;;;;;;;;;;21.50;74.80;;;20.81;63.33;99237.72;10366479;28;841;-70
2023/08/26 06:11:09;;;;;;;;;;;21.50;74.80;;;20.81;63.40;99243.00;10365834;28;878;-71
2023/08/26 06:16:04;;;;;;;;;;;21.50;74.80;;;20.79;63.06;99253.69;10366289;28;834;-71
2023/08/26 06:20:59;;;;;;;;;;;21.50;74.90;;;20.78;63.28;99258.16;10365603;28;1906;-71
2023/08/26 06:25:55;;;;;;;;;;;21.50;74.70;;;20.78;63.24;99258.16;10366297;28;838;-71
2023/08/26 06:30:50;;;;;;;;;;;21.50;74.70;;;20.79;63.21;99257.19;10365781;28;1131;-71
2023/08/26 06:35:46;;;;;;;;;;;21.50;74.60;;;20.81;63.25;99258.91;10367608;28;956;-70
2023/08/26 06:40:41;;;;;;;;;;;21.50;74.60;;;20.82;63.29;99248.19;10373216;28;1969;-71
2023/08/26 06:45:37;;;;;;;;;;;21.50;74.40;;;20.79;62.86;99228.06;10373079;28;827;-71
2023/08/26 06:50:32;;;;;;;;;;;21.40;74.00;;;20.81;63.00;99243.00;10373019;28;900;-71
2023/08/26 06:55:28;;;;;;;;;;;21.50;74.30;;;20.79;63.10;99245.75;10371917;28;957;-71
2023/08/26 07:00:23;;;;;;;;;;;21.40;74.40;;;20.77;62.66;99243.19;10372258;28;1910;-71
2023/08/26 07:05:19;;;;;;;;;;;21.40;74.50;;;20.76;62.93;99252.09;10373388;28;799;-71
2023/08/26 07:10:14;;;;;;;;;;;21.40;74.40;;;20.75;62.93;99253.06;10372579;28;781;-71
2023/08/26 07:15:09;;;;;;;;;;;21.40;74.60;;;20.74;62.87;99248.69;10369582;28;1001;-71
2023/08/26 07:20:05;;;;;;;;;;;21.40;74.50;;;20.74;62.74;99248.69;10371524;28;1905;-71
2023/08/26 07:25:00;;;;;;;;;;;21.40;74.30;;;20.74;62.81;99248.69;10370998;28;906;-71
2023/08/26 07:29:55;;;;;;;;;;;21.40;74.40;;;20.74;62.91;99247.84;10371007;28;1243;-71
2023/08/26 07:34:52;;;;;;;;;;;21.40;74.40;;;20.73;62.78;99247.00;10371510;28;779;-71
2023/08/26 07:39:47;;;;;;;;;;;21.40;74.30;;;20.74;62.53;99253.13;10371218;28;1914;-70
2023/08/26 07:44:43;;;;;;;;;;;21.40;73.90;;;20.74;62.15;99253.13;10370652;28;1025;-70
2023/08/26 07:49:39;;;;;;;;;;;21.40;73.60;;;20.75;62.27;99241.59;10369513;28;865;-71
2023/08/26 07:54:34;;;;;;;;;;;21.40;73.30;;;20.75;62.28;99236.28;10370248;28;850;-71
2023/08/26 07:59:30;;;;;;;;;;;21.40;73.20;;;20.75;62.38;99244.22;10369986;28;1984;-70
2023/08/26 08:04:25;;;;;;;;;;;21.40;73.10;;;20.75;62.48;99239.81;10370482;28;887;-69
2023/08/26 08:09:20;;;;;;;;;;;21.40;73.50;;;20.74;62.40;99253.97;10369804;28;886;-69
2023/08/26 08:14:16;;;;;;;;;;;21.40;73.50;;;20.75;62.34;99239.81;10369295;28;966;-69
2023/08/26 08:19:11;;;;;;;;;;;21.40;73.40;;;20.76;62.45;99241.50;10369152;28;898;-70
2023/08/26 08:24:07;;;;;;;;;;;21.40;73.30;;;20.74;62.68;99237.25;10369529;28;1977;-70
2023/08/26 08:29:03;;;;;;;;;;;21.30;73.30;;;20.73;62.32;99240.84;10369887;28;1171;-69
2023/08/26 08:33:58;;;;;;;;;;;21.30;73.20;;;20.73;62.29;99246.16;10368662;28;805;-69
2023/08/26 08:38:53;;;;;;;;;;;21.30;72.80;;;20.73;62.48;99254.09;10369298;28;860;-70
2023/08/26 08:43:49;;;;;;;;;;;21.30;72.90;;;20.72;62.07;99255.03;10368183;28;1917;-70
2023/08/26 08:48:44;;;;;;;;;;;21.30;72.70;;;20.74;62.16;99269.88;10368725;28;865;-73
2023/08/26 08:53:40;;;;;;;;;;;21.30;72.30;;;20.76;61.91;99267.13;10368136;28;884;-69
2023/08/26 08:58:35;;;;;;;;;;;21.30;72.40;;;20.73;61.78;99265.53;10366916;28;847;-69
2023/08/26 09:03:30;;;;;;;;;;;21.30;72.30;;;20.74;61.87;99264.56;10367600;28;1968;-69
2023/08/26 09:08:26;;;;;;;;;;;21.30;72.40;;;20.73;61.96;99276.13;10367429;28;919;-70
2023/08/26 09:13:22;;;;;;;;;;;21.30;72.30;;;20.73;61.86;99268.19;10367156;28;854;-70
2023/08/26 09:18:19;;;;;;;;;;;21.30;72.20;;;20.75;61.93;99278.66;10367888;28;819;-69
2023/08/26 09:23:14;;;;;;;;;;;21.30;72.10;;;20.75;61.87;99273.38;10367002;28;1983;-70
2023/08/26 09:28:10;;;;;;;;;;;21.30;71.80;;;20.75;61.57;99274.25;10367193;28;1270;-70
2023/08/26 09:33:05;;;;;;;;;;;21.30;71.90;;;20.75;61.64;99273.38;10366099;28;973;-70
2023/08/26 09:38:00;;;;;;;;;;;21.30;71.60;;;20.75;61.39;99266.28;10367277;28;885;-69
2023/08/26 09:42:56;;;;;;;;;;;21.30;71.30;;;20.74;61.53;99274.31;10367113;28;1975;-69
2023/08/26 09:47:51;;;;;;;;;;;21.30;71.50;;;20.75;61.31;99274.25;10366297;28;938;-69
2023/08/26 09:52:47;;;;;;;;;;;21.30;71.50;;;20.74;61.44;99264.56;10366172;28;752;-68
2023/08/26 09:57:43;;;;;;;;;;;21.30;71.60;;;20.77;61.33;99274.97;10366264;28;799;-69
2023/08/26 10:02:39;;;;;;;;;;;21.30;71.50;;;20.74;61.24;99271.69;10366516;28;1972;-69
2023/08/26 10:07:34;;;;;;;;;;;21.30;71.60;;;20.75;61.33;99282.19;10366058;28;862;-69
2023/08/26 10:12:29;;;;;;;;;;;21.30;71.70;;;20.78;61.16;99283.78;10371155;28;784;-69
2023/08/26 10:17:25;;;;;;;;;;;21.30;71.80;;;20.76;61.49;99280.38;10374066;28;972;-69
2023/08/26 10:22:20;;;;;;;;;;;21.30;71.70;;;20.77;60.96;99274.97;10374377;28;1914;-69
2023/08/26 10:27:16;;;;;;;;;;;21.30;71.70;;;20.78;61.31;99286.44;10373630;28;779;-69
2023/08/26 10:32:11;;;;;;;;;;;21.30;71.60;;;20.76;61.36;99293.63;10372674;28;1378;-70
2023/08/26 10:37:06;;;;;;;;;;;21.30;71.60;;;20.78;61.18;99281.16;10373885;28;862;-70
2023/08/26 10:42:02;;;;;;;;;;;21.30;71.50;;;20.80;61.04;99295.13;10373344;28;1913;-70
2023/08/26 10:46:57;;;;;;;;;;;21.30;71.40;;;20.79;61.32;99302.22;10372828;28;870;-71
2023/08/26 10:51:53;;;;;;;;;;;21.30;71.60;;;20.79;61.14;99282.84;10372726;28;823;-70
2023/08/26 10:56:48;;;;;;;;;;;21.30;71.60;;;20.79;61.13;99281.03;10372721;28;949;-73
2023/08/26 11:01:45;;;;;;;;;;;21.30;71.40;;;20.81;61.12;99282.75;10372270;28;1901;-73
2023/08/26 11:06:41;;;;;;;;;;;21.30;71.10;;;20.78;61.17;99287.28;10372036;28;921;-73
2023/08/26 11:11:37;;;;;;;;;;;21.30;71.20;;;20.76;61.32;99277.72;10372898;28;880;-73
2023/08/26 11:16:32;;;;;;;;;;;21.30;71.30;;;20.75;61.15;99281.31;10372522;28;862;-73
2023/08/26 11:21:28;;;;;;;;;;;21.30;71.20;;;20.81;61.14;99293.34;10370904;28;1901;-73
2023/08/26 11:26:24;;;;;;;;;;;21.30;71.10;;;20.81;60.83;99282.75;10371420;28;782;-73
2023/08/26 11:31:20;;;;;;;;;;;21.30;70.70;;;20.79;61.00;99283.69;10371371;28;1128;-73
2023/08/26 11:36:15;;;;;;;;;;;21.30;71.00;;;20.76;60.81;99286.53;10371058;28;779;-73
2023/08/26 11:41:10;;;;;;;;;;;21.30;70.50;;;20.77;60.75;99285.56;10370803;28;1909;-73
2023/08/26 11:46:06;;;;;;;;;;;21.30;70.80;;;20.77;60.73;99282.91;10371243;28;838;-73
2023/08/26 11:51:03;;;;;;;;;;;21.30;70.70;;;20.77;60.51;99274.13;10370504;28;812;-73
2023/08/26 11:55:58;;;;;;;;;;;21.30;70.30;;;20.74;60.79;99269.03;10370894;28;830;-75
2023/08/26 12:00:54;;;;;;;;;;;21.30;70.50;;;20.77;60.50;99264.38;10370570;28;1894;-74
2023/08/26 12:05:49;;;;;;;;;;;21.30;70.20;;;20.77;60.66;99267.03;10369778;28;870;-74
2023/08/26 12:10:45;;;;;;;;;;;21.30;70.20;;;20.81;60.51;99269.50;10370102;28;799;-74
2023/08/26 12:15:40;;;;;;;;;;;21.30;70.20;;;20.85;60.51;99268.34;10370701;28;882;-74
2023/08/26 12:20:36;;;;;;;;;;;21.30;70.20;;;20.76;60.61;99272.44;10369815;28;1902;-74
2023/08/26 12:25:32;;;;;;;;;;;21.30;70.10;;;20.76;60.62;99273.28;10369834;28;890;-74
2023/08/26 12:30:27;;;;;;;;;;;21.30;69.60;;;20.75;60.58;99270.72;10369100;28;1990;-74
2023/08/26 12:35:23;;;;;;;;;;;21.30;69.80;;;20.74;60.65;99271.69;10368311;28;835;-74
2023/08/26 12:40:18;;;;;;;;;;;21.30;69.70;;;20.76;60.43;99265.34;10369032;28;1969;-71
2023/08/26 12:45:13;;;;;;;;;;;21.30;70.00;;;20.78;60.66;99274.03;10368314;28;804;-71
2023/08/26 12:50:09;;;;;;;;;;;21.30;69.80;;;20.76;60.46;99278.56;10368126;28;1167;-71
2023/08/26 12:55:04;;;;;;;;;;;21.30;69.70;;;20.79;60.03;99273.09;10367881;28;941;-71
2023/08/26 13:00:00;;;;;;;;;;;21.30;69.30;;;20.84;60.24;99279.91;10367030;28;1909;-73
2023/08/26 13:04:55;;;;;;;;;;;21.30;69.10;;;20.88;60.07;99276.97;10368212;28;886;-73
2023/08/26 13:09:51;;;;;;;;;;;21.30;68.60;;;20.90;60.16;99271.56;10367438;28;827;-73
2023/08/26 13:14:46;;;;;;;;;;;21.40;68.50;;;20.87;60.14;99267.31;10367266;28;929;-73
2023/08/26 13:19:41;;;;;;;;;;;21.30;68.30;;;20.96;59.89;99276.47;10366970;28;1917;-72
2023/08/26 13:24:37;;;;;;;;;;;21.40;68.40;;;20.89;60.05;99273.34;10366328;28;874;-73
2023/08/26 13:29:32;;;;;;;;;;;21.40;68.70;;;20.88;59.86;99269.03;10367171;28;1373;-74
2023/08/26 13:34:28;;;;;;;;;;;21.40;68.70;;;20.94;60.12;99270.41;10367169;28;799;-74
2023/08/26 13:39:23;;;;;;;;;;;21.30;69.00;;;21.01;59.75;99253.16;10366556;28;876;-73
2023/08/26 13:44:19;;;;;;;;;;;21.40;69.10;;;21.02;59.76;99254.88;10366199;28;1961;-74
2023/08/26 13:49:14;;;;;;;;;;;21.50;69.50;;;20.95;60.01;99251.75;10365759;28;856;-70
2023/08/26 13:54:09;;;;;;;;;;;21.40;69.40;;;21.00;59.74;99256.78;10366254;28;894;-71
2023/08/26 13:59:05;;;;;;;;;;;21.50;69.50;;;21.06;59.69;99263.47;10365919;28;902;-73
2023/08/26 14:04:01;;;;;;;;;;;21.50;69.30;;;20.96;59.96;99258.78;10365928;28;1876;-73
2023/08/26 14:08:56;;;;;;;;;;;21.50;69.20;;;20.94;60.22;99267.78;10365747;28;890;-73
2023/08/26 14:13:53;;;;;;;;;;;21.50;69.50;;;21.09;59.75;99261.50;10365983;28;859;-74
2023/08/26 14:18:48;;;;;;;;;;;21.50;69.50;;;20.98;60.05;99266.59;10365569;28;913;-74
2023/08/26 14:23:44;;;;;;;;;;;21.50;69.50;;;20.95;60.14;99269.47;10365724;28;1968;-75
2023/08/26 14:28:39;;;;;;;;;;;21.50;69.50;;;21.18;59.43;99257.38;10366169;28;1328;-74
2023/08/26 14:33:36;;;;;;;;;;;21.50;69.20;;;21.36;59.13;99260.63;10365409;28;847;-74
2023/08/26 14:38:31;;;;;;;;;;;21.60;69.30;;;21.48;59.00;99256.34;10365259;28;1662;-74
2023/08/26 14:43:26;;;;;;;;;;;21.70;69.20;;;21.43;59.02;99246.91;10365178;28;1906;-75
2023/08/26 14:48:23;;;;;;;;;;;21.70;69.10;;;21.58;58.59;99244.16;10365191;28;903;-75
2023/08/26 14:53:19;;;;;;;;;;;21.80;69.20;;;21.67;58.30;99243.56;10364909;28;902;-74
2023/08/26 14:58:14;;;;;;;;;;;21.80;69.10;;;21.76;58.33;99237.63;10370694;28;912;-75
2023/08/26 15:03:10;;;;;;;;;;;21.90;69.20;;;21.86;58.39;99222.78;10356111;28;1886;-77
2023/08/26 15:08:06;;;;;;;;;;;22.00;69.20;;;21.94;58.07;99216.09;10331561;28;913;-75
2023/08/26 15:13:02;;;;;;;;;;;22.00;68.60;;;22.00;58.12;99216.50;10331237;28;937;-74
2023/08/26 15:18:00;;;;;;;;;;;22.10;68.60;;;22.06;57.75;99216.09;10331208;28;854;-73
2023/08/26 15:22:55;;;;;;;;;;;22.10;68.30;;;22.12;57.58;99206.88;10330763;28;1898;-73
2023/08/26 15:27:51;;;;;;;;;;;22.10;68.40;;;22.15;57.67;99198.69;10329378;28;1176;-73
2023/08/26 15:32:47;;;;;;;;;;;22.20;68.60;;;22.07;58.12;99203.69;10367821;28;1714;-71
2023/08/26 15:37:42;;;;;;;;;;;22.20;68.70;;;21.90;58.61;99202.19;10370371;28;894;-74
2023/08/26 15:42:38;;;;;;;;;;;22.10;68.80;;;21.69;58.95;99187.75;10370229;28;1902;-73
2023/08/26 15:47:34;;;;;;;;;;;22.10;69.00;;;21.56;59.39;99180.66;10370956;28;881;-75
2023/08/26 15:52:29;;;;;;;;;;;22.00;68.90;;;21.47;59.67;99175.94;10370209;28;1000;-76
2023/08/26 15:57:25;;;;;;;;;;;21.90;68.90;;;21.42;59.83;99173.59;10370104;28;785;-76
2023/08/26 16:02:20;;;;;;;;;;;21.90;69.10;;;21.38;59.73;99168.63;10370631;28;1951;-70
2023/08/26 16:07:15;;;;;;;;;;;21.90;69.00;;;21.35;59.70;99164.34;10369239;28;783;-70
2023/08/26 16:12:16;;;;;;;;;;;21.80;68.70;;;21.31;59.74;99162.84;10369668;28;1039;-70
2023/08/26 16:17:11;;;;;;;;;;;21.80;68.60;;;21.30;59.74;99157.63;10369626;28;826;-69
2023/08/26 16:22:07;;;;;;;;;;;21.80;68.10;;;21.29;59.51;99154.13;10368954;28;1898;-70
2023/08/26 16:27:02;;;;;;;;;;;21.80;68.00;;;21.27;59.49;99149.91;10369095;28;960;-69
2023/08/26 16:31:58;;;;;;;;;;;21.80;67.80;;;21.26;59.59;99148.22;10369303;28;1375;-69
2023/08/26 16:36:53;;;;;;;;;;;21.80;67.60;;;21.24;59.53;99153.59;10369320;28;900;-76
2023/08/26 16:41:49;;;;;;;;;;;21.80;67.50;;;21.21;59.37;99154.66;10368744;28;1909;-77
2023/08/26 16:46:44;;;;;;;;;;;21.80;67.40;;;21.21;59.18;99149.34;10367727;28;875;-76
2023/08/26 16:51:39;;;;;;;;;;;21.80;67.60;;;21.20;59.19;99152.13;10367337;28;937;-77
2023/08/26 16:56:35;;;;;;;;;;;21.80;67.70;;;21.19;59.21;99142.44;10368005;28;800;-76
2023/08/26 17:01:30;;;;;;;;;;;21.70;67.00;;;21.18;59.37;99148.72;10366960;28;1910;-75
2023/08/26 17:06:25;;;;;;;;;;;21.70;67.80;;;21.18;59.49;99152.22;10367507;28;912;-74
2023/08/26 17:11:21;;;;;;;;;;;21.70;67.90;;;21.18;59.53;99157.50;10367482;28;889;-76
2023/08/26 17:16:16;;;;;;;;;;;21.70;67.90;;;21.17;59.28;99158.47;10367273;28;771;-75
2023/08/26 17:21:12;;;;;;;;;;;21.70;68.00;;;21.15;59.62;99170.13;10367231;28;1902;-75
2023/08/26 17:26:07;;;;;;;;;;;21.70;69.20;;;21.15;59.67;99170.13;10367506;28;779;-74
2023/08/26 17:31:03;;;;;;;;;;;21.70;68.30;;;21.14;59.69;99179.88;10367859;28;1724;-75
2023/08/26 17:35:58;;;;;;;;;;;21.70;68.50;;;21.12;59.83;99181.78;10367226;28;941;-74
2023/08/26 17:40:54;;;;;;;;;;;21.70;68.40;;;21.11;59.85;99182.72;10366981;28;1977;-74
2023/08/26 17:45:49;;;;;;;;;;;21.70;68.60;;;21.10;59.58;99188.97;10366528;28;862;-74
2023/08/26 17:50:44;;;;;;;;;;;21.70;68.60;;;21.09;59.74;99189.06;10366267;28;966;-74
2023/08/26 17:55:40;;;;;;;;;;;21.70;68.60;;;21.08;59.86;99203.28;10366155;28;819;-74
2023/08/26 18:00:38;;;;;;;;;;;21.70;68.60;;;21.06;59.84;99206.00;10366480;28;1964;-75
2023/08/26 18:05:33;;;;;;;;;;;21.70;68.90;;;21.07;59.78;99215.69;10366329;28;891;-76
2023/08/26 18:10:28;;;;;;;;;;;21.60;69.00;;;21.06;60.03;99218.41;10366140;28;839;-75
2023/08/26 18:15:24;;;;;;;;;;;21.70;69.50;;;21.04;60.15;99218.53;10366459;28;800;-74
2023/08/26 18:20:19;;;;;;;;;;;21.60;69.40;;;21.04;60.20;99217.66;10365848;28;1961;-76
2023/08/26 18:25:15;;;;;;;;;;;21.60;69.50;;;21.02;60.06;99215.97;10365390;28;867;-73
2023/08/26 18:30:10;;;;;;;;;;;21.60;69.50;;;21.02;60.17;99223.94;10365676;28;1111;-70
2023/08/26 18:35:05;;;;;;;;;;;21.60;69.70;;;21.02;60.23;99231.03;10373839;28;866;-69
2023/08/26 18:40:01;;;;;;;;;;;21.60;69.70;;;21.00;60.35;99223.16;10373876;28;1906;-70
2023/08/26 18:44:56;;;;;;;;;;;21.60;69.70;;;21.00;60.18;99225.81;10373157;28;909;-69
2023/08/26 18:49:52;;;;;;;;;;;21.60;69.70;;;20.99;60.26;99226.78;10373621;28;806;-70
2023/08/26 18:54:47;;;;;;;;;;;21.60;69.70;;;21.00;60.45;99239.06;10369232;28;982;-70
2023/08/26 18:59:43;;;;;;;;;;;21.60;69.80;;;21.00;60.10;99240.88;10329707;28;1914;-71
2023/08/26 19:04:39;;;;;;;;;;;21.60;69.60;;;20.99;60.28;99249.78;10331095;28;785;-69
2023/08/26 19:09:34;;;;;;;;;;;21.60;69.70;;;20.99;60.35;99253.28;10331094;28;868;-70
2023/08/26 19:14:30;;;;;;;;;;;21.60;70.00;;;20.99;60.28;99241.84;10330799;28;760;-70
2023/08/26 19:19:26;;;;;;;;;;;21.60;70.00;;;20.98;60.38;99243.59;10330767;28;827;-69
2023/08/26 19:24:21;;;;;;;;;;;21.60;70.10;;;20.99;60.36;99249.78;10330207;28;1906;-69
2023/08/26 19:29:18;;;;;;;;;;;21.60;70.10;;;20.98;60.44;99243.59;10337681;28;1097;-69
2023/08/26 19:34:14;;;;;;;;;;;21.60;70.10;;;20.98;60.37;99243.59;10371622;28;779;-69
2023/08/26 19:39:10;;;;;;;;;;;21.60;70.10;;;20.98;60.52;99248.06;10370527;28;878;-69
2023/08/26 19:44:06;;;;;;;;;;;21.60;70.10;;;20.97;60.50;99238.44;10369514;28;1910;-70
2023/08/26 19:49:01;;;;;;;;;;;21.60;70.20;;;20.97;60.50;99249.88;10370167;28;850;-69
2023/08/26 19:53:57;;;;;;;;;;;21.60;70.30;;;20.97;60.64;99243.72;10370465;28;813;-69
2023/08/26 19:58:53;;;;;;;;;;;21.60;70.30;;;20.97;60.75;99249.88;10369633;28;854;-71
2023/08/26 20:03:51;;;;;;;;;;;21.60;70.40;;;20.99;60.54;99249.78;10370737;28;1910;-71
2023/08/26 20:08:46;;;;;;;;;;;21.60;71.10;;;20.97;60.54;99236.63;10370246;28;873;-71
2023/08/26 20:13:42;;;;;;;;;;;21.60;70.40;;;20.96;60.60;99226.13;10369675;28;960;-71
2023/08/26 20:18:37;;;;;;;;;;;21.60;70.40;;;20.97;60.58;99233.97;10369009;28;823;-71
2023/08/26 20:23:33;;;;;;;;;;;21.60;70.40;;;20.97;60.54;99225.19;10369915;28;1906;-71
2023/08/26 20:28:28;;;;;;;;;;;21.60;70.40;;;20.96;60.62;99228.78;10368270;28;1195;-70
2023/08/26 20:33:23;;;;;;;;;;;21.60;70.40;;;20.96;60.58;99223.50;10368879;28;854;-71
2023/08/26 20:38:19;;;;;;;;;;;21.60;70.30;;;20.95;60.60;99227.06;10368262;28;808;-71
2023/08/26 20:43:14;;;;;;;;;;;21.50;70.20;;;20.96;60.78;99229.63;10368115;28;1902;-71
2023/08/26 20:48:10;;;;;;;;;;;21.60;70.40;;;20.95;60.64;99227.91;10368219;28;869;-70
2023/08/26 20:53:05;;;;;;;;;;;21.60;70.30;;;20.95;60.59;99229.72;10368073;28;779;-72
2023/08/26 20:58:02;;;;;;;;;;;21.60;70.40;;;20.95;60.56;99230.56;10367459;28;854;-71
2023/08/26 21:02:57;;;;;;;;;;;21.60;70.40;;;20.97;60.58;99230.47;10367710;28;1909;-71
2023/08/26 21:07:53;;;;;;;;;;;21.60;70.30;;;20.95;60.74;99225.25;10367526;28;851;-72
2023/08/26 21:12:48;;;;;;;;;;;21.60;70.40;;;20.96;60.72;99220.84;10367276;28;950;-72
2023/08/26 21:17:44;;;;;;;;;;;21.60;70.40;;;20.95;60.88;99213.81;10367792;28;870;-71
2023/08/26 21:22:39;;;;;;;;;;;21.60;70.40;;;20.95;60.81;99219.13;10367486;28;1963;-72
2023/08/26 21:27:35;;;;;;;;;;;21.60;70.50;;;20.95;60.62;99219.13;10366857;28;1145;-72
2023/08/26 21:32:30;;;;;;;;;;;21.60;70.50;;;20.93;60.72;99213.94;10367085;28;1199;-72
2023/08/26 21:37:25;;;;;;;;;;;21.60;70.40;;;20.94;60.61;99222.72;10367327;28;850;-72
2023/08/26 21:42:21;;;;;;;;;;;21.60;70.40;;;20.93;60.75;99210.41;10366725;28;1979;-71
2023/08/26 21:47:16;;;;;;;;;;;21.60;70.40;;;20.93;60.68;99199.81;10366427;28;856;-72
2023/08/26 21:52:12;;;;;;;;;;;21.50;70.30;;;20.92;60.59;99201.63;10367527;28;860;-72
2023/08/26 21:57:07;;;;;;;;;;;21.60;70.40;;;20.93;60.75;99205.13;10366491;28;802;-72
2023/08/26 22:02:03;;;;;;;;;;;21.50;70.20;;;20.92;60.71;99214.03;10366664;28;2024;-71
2023/08/26 22:06:59;;;;;;;;;;;21.50;70.30;;;20.92;60.65;99217.53;10369443;28;842;-72
2023/08/26 22:11:54;;;;;;;;;;;21.50;70.20;;;20.92;60.84;99217.53;10374492;28;846;-71
2023/08/26 22:16:49;;;;;;;;;;;21.50;70.30;;;20.92;60.83;99225.47;10374302;28;838;-71
2023/08/26 22:21:45;;;;;;;;;;;21.50;70.20;;;20.92;60.72;99222.81;10374018;28;1964;-72
2023/08/26 22:26:40;;;;;;;;;;;21.50;70.30;;;20.92;60.88;99224.63;10373922;28;765;-71
2023/08/26 22:31:35;;;;;;;;;;;21.60;70.50;;;20.92;60.83;99235.22;10373683;28;1901;-72
2023/08/26 22:36:32;;;;;;;;;;;21.50;70.30;;;20.91;60.73;99228.25;10373531;28;862;-72
2023/08/26 22:41:27;;;;;;;;;;;21.50;70.30;;;20.90;60.69;99227.34;10373920;28;1934;-72
2023/08/26 22:46:23;;;;;;;;;;;21.50;70.40;;;20.90;60.84;99226.50;10374329;28;881;-72